createdAt,value
2024-04-24T00:01:18.856Z,55.14
2024-04-24T00:03:45.822Z,55.06
2024-04-24T00:06:12.675Z,55.50
2024-04-24T00:08:39.541Z,54.98
2024-04-24T00:11:06.518Z,55.16
2024-04-24T00:13:33.417Z,55.13
2024-04-24T00:16:03.093Z,54.56
2024-04-24T00:18:30.043Z,54.65
2024-04-24T00:20:56.946Z,54.58
2024-04-24T00:23:23.848Z,54.70
2024-04-24T00:25:50.801Z,54.70
2024-04-24T00:28:17.653Z,54.76
2024-04-24T00:30:44.499Z,55.43
2024-04-24T00:33:14.015Z,55.54
2024-04-24T00:35:40.923Z,55.38
2024-04-24T00:38:07.782Z,55.39
2024-04-24T00:40:37.704Z,55.08
2024-04-24T00:43:04.680Z,55.30
2024-04-24T00:45:31.484Z,54.77
2024-04-24T00:47:58.380Z,54.96
2024-04-24T00:50:28.128Z,54.91
2024-04-24T00:52:55.037Z,55.10
2024-04-24T00:55:21.965Z,54.61
2024-04-24T00:57:48.893Z,54.42
2024-04-24T01:00:16.091Z,54.67
2024-04-24T01:02:42.991Z,54.88
2024-04-24T01:05:09.982Z,55.11
2024-04-24T01:07:39.555Z,55.04
2024-04-24T01:10:16.523Z,55.42
2024-04-24T01:12:45.126Z,56.13
2024-04-24T01:15:12.031Z,55.71
2024-04-24T01:17:39.337Z,55.53
2024-04-24T01:20:07.260Z,55.35
2024-04-24T01:22:42.170Z,55.21
2024-04-24T01:25:12.547Z,55.03
2024-04-24T01:27:42.016Z,54.81
2024-04-24T01:30:08.996Z,54.99
2024-04-24T01:32:36.110Z,55.00
2024-04-24T01:35:03.315Z,54.87
2024-04-24T01:37:30.228Z,54.62
2024-04-24T01:39:57.060Z,54.72
2024-04-24T01:42:23.894Z,54.97
2024-04-24T01:44:53.332Z,54.99
2024-04-24T01:47:20.271Z,54.86
2024-04-24T01:49:47.201Z,55.01
2024-04-24T01:52:14.065Z,55.10
2024-04-24T01:54:40.945Z,55.06
2024-04-24T01:57:07.772Z,55.36
2024-04-24T01:59:34.590Z,55.32
2024-04-24T02:02:04.107Z,55.67
2024-04-24T02:04:30.993Z,55.92
2024-04-24T02:06:57.848Z,55.49
2024-04-24T02:09:24.660Z,56.20
2024-04-24T02:11:59.566Z,55.85
2024-04-24T02:14:33.700Z,55.88
2024-04-24T02:17:03.304Z,56.05
2024-04-24T02:19:30.163Z,56.15
2024-04-24T02:21:56.996Z,56.18
2024-04-24T02:24:23.898Z,56.51
2024-04-24T02:26:50.795Z,56.08
2024-04-24T02:29:17.762Z,56.30
2024-04-24T02:31:44.687Z,55.91
2024-04-24T02:34:14.287Z,55.75
2024-04-24T02:36:41.127Z,55.73
2024-04-24T02:39:08.005Z,55.63
2024-04-24T02:41:34.823Z,55.60
2024-04-24T02:44:01.665Z,55.55
2024-04-24T02:46:28.554Z,55.50
2024-04-24T02:48:55.424Z,55.70
2024-04-24T02:51:24.928Z,56.00
2024-04-24T02:53:51.736Z,56.20
2024-04-24T02:56:18.700Z,56.28
2024-04-24T02:58:45.659Z,56.51
2024-04-24T03:01:12.692Z,56.28
2024-04-24T03:03:39.703Z,56.13
2024-04-24T03:06:06.637Z,56.11
2024-04-24T03:08:36.163Z,56.00
2024-04-24T03:11:03.205Z,56.10
2024-04-24T03:13:30.134Z,56.11
2024-04-24T03:15:56.964Z,55.75
2024-04-24T03:18:23.826Z,56.33
2024-04-24T03:20:50.711Z,56.35
2024-04-24T03:23:17.719Z,56.10
2024-04-24T03:25:47.326Z,56.37
2024-04-24T03:28:14.233Z,56.17
2024-04-24T03:30:41.164Z,56.53
2024-04-24T03:33:08.144Z,56.80
2024-04-24T03:35:35.082Z,56.59
2024-04-24T03:38:01.914Z,56.75
2024-04-24T03:40:28.773Z,57.01
2024-04-24T03:42:58.261Z,56.62
2024-04-24T03:45:25.049Z,57.04
2024-04-24T03:47:52.697Z,57.59
2024-04-24T03:50:19.614Z,57.92
2024-04-24T03:52:46.494Z,58.07
2024-04-24T03:55:13.410Z,57.86
2024-04-24T03:57:40.229Z,58.16
2024-04-24T04:00:11.305Z,59.18
2024-04-24T04:02:40.956Z,58.95
2024-04-24T04:05:07.842Z,59.11
2024-04-24T04:07:34.699Z,58.98
2024-04-24T04:10:01.609Z,58.77
2024-04-24T04:12:28.424Z,58.77
2024-04-24T04:14:55.244Z,58.51
2024-04-24T04:17:24.910Z,58.11
2024-04-24T04:19:51.838Z,58.15
2024-04-24T04:22:18.675Z,57.87
2024-04-24T04:24:45.522Z,57.96
2024-04-24T04:27:12.360Z,58.16
2024-04-24T04:29:39.217Z,57.76
2024-04-24T04:32:06.145Z,58.07
2024-04-24T04:34:35.633Z,57.46
2024-04-24T04:37:02.473Z,57.37
2024-04-24T04:39:29.384Z,57.34
2024-04-24T04:41:56.217Z,57.40
2024-04-24T04:44:23.215Z,57.53
2024-04-24T04:46:50.354Z,57.49
2024-04-24T04:49:17.352Z,57.43
2024-04-24T04:51:46.876Z,57.19
2024-04-24T04:54:13.834Z,57.05
2024-04-24T04:56:40.760Z,56.80
2024-04-24T04:59:07.644Z,57.03
2024-04-24T05:01:34.508Z,56.72
2024-04-24T05:04:01.410Z,57.05
2024-04-24T05:06:28.688Z,56.99
2024-04-24T05:08:58.208Z,57.26
2024-04-24T05:11:25.094Z,57.28
2024-04-24T05:13:52.044Z,57.83
2024-04-24T05:16:18.986Z,57.76
2024-04-24T05:18:46.054Z,57.65
2024-04-24T05:21:12.932Z,57.59
2024-04-24T05:23:39.859Z,57.97
2024-04-24T05:26:09.387Z,57.56
2024-04-24T05:28:36.277Z,57.35
2024-04-24T05:31:03.281Z,57.21
2024-04-24T05:33:30.187Z,57.26
2024-04-24T05:35:57.052Z,57.80
2024-04-24T05:38:23.949Z,57.95
2024-04-24T05:40:50.841Z,58.36
2024-04-24T05:43:20.301Z,57.66
2024-04-24T05:45:47.194Z,57.88
2024-04-24T05:48:14.192Z,57.72
2024-04-24T05:50:41.244Z,57.30
2024-04-24T05:53:08.086Z,57.18
2024-04-24T05:55:34.936Z,57.24
2024-04-24T05:58:01.755Z,57.00
2024-04-24T06:00:31.214Z,56.50
2024-04-24T06:02:58.149Z,56.51
2024-04-24T06:05:25.019Z,56.45
2024-04-24T06:07:51.962Z,56.15
2024-04-24T06:10:18.927Z,55.74
2024-04-24T06:12:45.836Z,55.67
2024-04-24T06:15:12.859Z,55.28
2024-04-24T06:17:42.464Z,55.21
2024-04-24T06:20:10.108Z,54.74
2024-04-24T06:22:37.004Z,54.12
2024-04-24T06:25:04.042Z,53.66
2024-04-24T06:27:30.965Z,54.69
2024-04-24T06:29:57.777Z,55.18
2024-04-24T06:32:24.740Z,56.35
2024-04-24T06:34:54.317Z,56.56
2024-04-24T06:37:21.297Z,56.18
2024-04-24T06:39:48.213Z,54.08
2024-04-24T06:42:15.073Z,55.16
2024-04-24T06:44:41.931Z,55.23
2024-04-24T06:47:09.054Z,54.23
2024-04-24T06:49:35.937Z,53.44
2024-04-24T06:52:05.418Z,51.95
2024-04-24T06:54:32.274Z,51.44
2024-04-24T06:56:59.194Z,52.33
2024-04-24T06:59:26.285Z,51.64
2024-04-24T07:01:53.229Z,50.78
2024-04-24T07:04:21.181Z,50.61
2024-04-24T07:06:48.144Z,51.18
2024-04-24T07:09:17.585Z,49.28
2024-04-24T07:11:44.487Z,49.03
2024-04-24T07:14:11.434Z,47.67
2024-04-24T07:16:38.339Z,47.04
2024-04-24T07:19:05.324Z,45.63
2024-04-24T07:21:32.239Z,45.02
2024-04-24T07:23:59.225Z,43.45
2024-04-24T07:26:28.899Z,43.50
2024-04-24T07:28:55.827Z,43.83
2024-04-24T07:31:22.706Z,42.98
2024-04-24T07:33:49.557Z,42.98
2024-04-24T07:36:16.409Z,42.75
2024-04-24T07:38:44.036Z,43.32
2024-04-24T07:41:10.950Z,42.47
2024-04-24T07:43:40.445Z,42.01
2024-04-24T07:46:07.265Z,41.27
2024-04-24T07:48:34.303Z,40.55
2024-04-24T07:51:01.299Z,40.48
2024-04-24T07:53:28.338Z,40.28
2024-04-24T07:55:55.340Z,40.15
2024-04-24T07:58:22.248Z,40.27
2024-04-24T08:00:51.924Z,39.82
2024-04-24T08:03:19.003Z,40.15
2024-04-24T08:05:45.933Z,40.85
2024-04-24T08:08:12.894Z,40.22
2024-04-24T08:10:39.760Z,40.61
2024-04-24T08:13:06.604Z,39.39
2024-04-24T08:15:33.451Z,39.52
2024-04-24T08:18:03.083Z,39.15
2024-04-24T08:20:29.988Z,38.17
2024-04-24T08:22:56.916Z,37.90
2024-04-24T08:25:23.778Z,38.23
2024-04-24T08:27:50.919Z,36.41
2024-04-24T08:30:17.782Z,37.04
2024-04-24T08:32:44.903Z,37.31
2024-04-24T08:35:15.102Z,37.20
2024-04-24T08:37:41.918Z,37.17
2024-04-24T08:40:09.289Z,37.54
2024-04-24T08:42:36.173Z,37.25
2024-04-24T08:45:03.192Z,36.68
2024-04-24T08:47:30.160Z,36.74
2024-04-24T08:49:57.080Z,38.23
2024-04-24T08:52:26.528Z,37.60
2024-04-24T08:54:57.588Z,37.13
2024-04-24T08:57:24.566Z,37.17
2024-04-24T08:59:51.418Z,37.97
2024-04-24T09:02:18.409Z,36.42
2024-04-24T09:04:45.325Z,37.25
2024-04-24T09:07:13.282Z,35.63
2024-04-24T09:09:42.736Z,35.99
2024-04-24T09:12:10.085Z,35.51
2024-04-24T09:14:36.990Z,35.85
2024-04-24T09:17:04.121Z,35.72
2024-04-24T09:19:31.620Z,35.64
2024-04-24T09:21:58.454Z,35.37
2024-04-24T09:24:25.381Z,36.07
2024-04-24T09:26:54.828Z,36.93
2024-04-24T09:29:21.656Z,37.51
2024-04-24T09:31:49.062Z,37.08
2024-04-24T09:34:15.884Z,37.19
2024-04-24T09:36:43.495Z,35.82
2024-04-24T09:39:10.666Z,35.57
2024-04-24T09:41:37.650Z,36.49
2024-04-24T09:44:11.056Z,36.66
2024-04-24T09:46:37.956Z,36.00
2024-04-24T09:49:05.033Z,36.70
2024-04-24T09:51:32.255Z,36.19
2024-04-24T09:53:59.076Z,35.20
2024-04-24T09:56:26.108Z,35.49
2024-04-24T09:58:55.449Z,35.48
2024-04-24T10:01:26.176Z,35.66
2024-04-24T10:03:53.368Z,35.12
2024-04-24T10:06:21.646Z,34.85
2024-04-24T10:08:48.636Z,35.14
2024-04-24T10:11:15.544Z,33.81
2024-04-24T10:13:42.837Z,33.55
2024-04-24T10:16:09.679Z,34.72
2024-04-24T10:18:39.251Z,33.38
2024-04-24T10:21:06.724Z,34.20
2024-04-24T10:23:33.639Z,34.27
2024-04-24T10:26:00.545Z,33.67
2024-04-24T10:28:27.634Z,34.06
2024-04-24T10:30:54.533Z,32.97
2024-04-24T10:33:21.646Z,32.39
2024-04-24T10:35:51.244Z,31.20
2024-04-24T10:38:18.324Z,32.02
2024-04-24T10:40:46.106Z,31.01
2024-04-24T10:43:14.477Z,30.03
2024-04-24T10:45:42.778Z,30.76
2024-04-24T10:48:10.051Z,32.15
2024-04-24T10:50:37.004Z,31.44
2024-04-24T10:53:06.755Z,31.22
2024-04-24T10:55:33.725Z,31.97
2024-04-24T10:58:00.581Z,30.01
2024-04-24T11:00:29.918Z,30.90
2024-04-24T11:03:00.577Z,30.33
2024-04-24T11:05:32.884Z,31.05
2024-04-24T11:08:00.326Z,29.27
2024-04-24T11:10:29.899Z,31.58
2024-04-24T11:12:56.823Z,29.89
2024-04-24T11:15:24.263Z,29.12
2024-04-24T11:17:51.366Z,28.63
2024-04-24T11:20:18.514Z,27.14
2024-04-24T11:22:45.515Z,26.98
2024-04-24T11:25:13.526Z,26.57
2024-04-24T11:27:44.092Z,27.65
2024-04-24T11:30:11.224Z,27.00
2024-04-24T11:32:38.241Z,26.48
2024-04-24T11:35:05.669Z,26.32
2024-04-24T11:37:32.572Z,26.74
2024-04-24T11:39:59.452Z,27.50
2024-04-24T11:42:26.348Z,26.97
2024-04-24T11:44:55.795Z,27.19
2024-04-24T11:47:22.712Z,26.97
2024-04-24T11:49:50.622Z,28.72
2024-04-24T11:52:17.444Z,26.23
2024-04-24T11:54:45.742Z,26.10
2024-04-24T11:57:12.695Z,26.33
2024-04-24T11:59:42.919Z,26.45
2024-04-24T12:02:12.349Z,26.60
2024-04-24T12:04:44.256Z,26.77
2024-04-24T12:07:11.191Z,26.32
2024-04-24T12:09:38.094Z,26.44
2024-04-24T12:12:05.462Z,27.22
2024-04-24T12:14:32.424Z,26.84
2024-04-24T12:16:59.334Z,27.61
2024-04-24T12:19:28.879Z,27.12
2024-04-24T12:21:55.714Z,26.08
2024-04-24T12:24:22.581Z,25.64
2024-04-24T12:26:49.577Z,25.33
2024-04-24T12:29:16.533Z,26.57
2024-04-24T12:31:43.404Z,27.93
2024-04-24T12:34:10.359Z,28.52
2024-04-24T12:36:39.959Z,29.43
2024-04-24T12:39:06.936Z,29.64
2024-04-24T12:41:33.785Z,30.74
2024-04-24T12:44:00.692Z,29.33
2024-04-24T12:46:27.579Z,31.25
2024-04-24T12:48:54.730Z,30.25
2024-04-24T12:51:21.633Z,30.97
2024-04-24T12:53:51.125Z,30.28
2024-04-24T12:56:18.078Z,31.66
2024-04-24T12:58:45.168Z,31.21
2024-04-24T13:01:17.990Z,32.00
2024-04-24T13:03:44.925Z,31.12
2024-04-24T13:06:11.776Z,31.62
2024-04-24T13:08:38.641Z,30.49
2024-04-24T13:11:08.363Z,31.52
2024-04-24T13:13:35.209Z,32.70
2024-04-24T13:16:02.024Z,33.12
2024-04-24T13:18:29.982Z,31.35
2024-04-24T13:20:57.006Z,31.45
2024-04-24T13:23:23.890Z,30.82
2024-04-24T13:25:50.755Z,31.69
2024-04-24T13:28:20.223Z,31.26
2024-04-24T13:30:47.109Z,31.75
2024-04-24T13:33:13.978Z,31.36
2024-04-24T13:35:40.831Z,31.68
2024-04-24T13:38:07.671Z,31.08
2024-04-24T13:40:34.532Z,31.83
2024-04-24T13:43:01.405Z,32.01
2024-04-24T13:45:30.937Z,33.16
2024-04-24T13:47:57.926Z,32.64
2024-04-24T13:50:24.911Z,33.42
2024-04-24T13:52:51.872Z,32.80
2024-04-24T13:55:18.748Z,32.51
2024-04-24T13:57:45.634Z,33.04
2024-04-24T14:00:12.836Z,33.07
2024-04-24T14:02:42.413Z,34.32
2024-04-24T14:05:09.331Z,35.60
2024-04-24T14:07:36.170Z,36.46
2024-04-24T14:10:03.181Z,36.96
2024-04-24T14:12:31.907Z,36.71
2024-04-24T14:14:59.709Z,36.78
2024-04-24T14:17:26.705Z,37.31
2024-04-24T14:19:56.331Z,37.70
2024-04-24T14:22:23.248Z,37.71
2024-04-24T14:24:50.075Z,38.05
2024-04-24T14:27:16.900Z,37.68
2024-04-24T14:29:43.719Z,37.71
2024-04-24T14:32:10.632Z,37.36
2024-04-24T14:34:37.560Z,37.36
2024-04-24T14:37:07.018Z,36.56
2024-04-24T14:39:35.396Z,36.20
2024-04-24T14:42:02.659Z,36.33
2024-04-24T14:44:29.571Z,35.86
2024-04-24T14:46:56.456Z,35.04
2024-04-24T14:49:23.309Z,35.33
2024-04-24T14:51:50.223Z,35.43
2024-04-24T14:54:19.767Z,35.95
2024-04-24T14:56:46.623Z,35.00
2024-04-24T14:59:13.760Z,35.91
2024-04-24T15:01:40.743Z,35.56
2024-04-24T15:04:07.612Z,35.00
2024-04-24T15:06:34.473Z,35.78
2024-04-24T15:09:01.378Z,35.89
2024-04-24T15:11:31.019Z,35.72
2024-04-24T15:13:58.280Z,35.78
2024-04-24T15:16:25.233Z,37.24
2024-04-24T15:18:52.097Z,37.88
2024-04-24T15:21:18.998Z,37.31
2024-04-24T15:23:45.830Z,37.07
2024-04-24T15:26:13.032Z,37.35
2024-04-24T15:28:42.508Z,37.33
2024-04-24T15:31:10.719Z,36.34
2024-04-24T15:33:40.247Z,36.85
2024-04-24T15:36:08.913Z,37.08
2024-04-24T15:38:35.793Z,37.67
2024-04-24T15:41:02.750Z,37.90
2024-04-24T15:43:29.627Z,38.17
2024-04-24T15:45:59.215Z,38.83
2024-04-24T15:48:26.223Z,38.89
2024-04-24T15:50:53.257Z,38.88
2024-04-24T15:53:20.207Z,38.71
2024-04-24T15:55:47.104Z,38.90
2024-04-24T15:58:13.973Z,38.92
2024-04-24T16:00:40.818Z,38.93
2024-04-24T16:03:10.371Z,39.41
2024-04-24T16:05:37.347Z,38.67
2024-04-24T16:08:05.126Z,37.86
2024-04-24T16:10:31.978Z,37.60
2024-04-24T16:12:58.907Z,37.65
2024-04-24T16:15:25.781Z,36.96
2024-04-24T16:17:52.690Z,36.74
2024-04-24T16:20:22.415Z,36.52
2024-04-24T16:22:49.322Z,36.68
2024-04-24T16:25:16.225Z,36.10
2024-04-24T16:27:43.161Z,35.36
2024-04-24T16:30:10.502Z,35.73
2024-04-24T16:32:37.571Z,36.14
2024-04-24T16:35:05.002Z,36.29
2024-04-24T16:37:34.607Z,36.49
2024-04-24T16:40:01.470Z,36.77
2024-04-24T16:42:28.325Z,36.01
2024-04-24T16:44:55.368Z,35.56
2024-04-24T16:47:22.653Z,35.43
2024-04-24T16:49:49.558Z,35.63
2024-04-24T16:52:16.383Z,35.80
2024-04-24T16:54:45.909Z,35.67
2024-04-24T16:57:12.765Z,35.46
2024-04-24T16:59:39.700Z,34.77
2024-04-24T17:02:06.680Z,35.04
2024-04-24T17:04:33.831Z,35.27
2024-04-24T17:07:00.825Z,35.47
2024-04-24T17:09:27.767Z,34.92
2024-04-24T17:11:57.458Z,35.06
2024-04-24T17:14:24.645Z,34.84
2024-04-24T17:16:51.510Z,35.19
2024-04-24T17:19:18.669Z,35.37
2024-04-24T17:21:45.699Z,35.64
2024-04-24T17:24:12.627Z,35.70
2024-04-24T17:26:39.718Z,35.87
2024-04-24T17:29:09.305Z,36.30
2024-04-24T17:31:36.329Z,36.73
2024-04-24T17:34:03.189Z,37.33
2024-04-24T17:36:30.233Z,36.93
2024-04-24T17:38:57.107Z,36.66
2024-04-24T17:41:24.005Z,37.00
2024-04-24T17:43:52.611Z,37.12
2024-04-24T17:46:22.049Z,38.55
2024-04-24T17:48:49.023Z,39.38
2024-04-24T17:51:15.958Z,40.69
2024-04-24T17:53:42.844Z,41.60
2024-04-24T17:56:09.710Z,41.88
2024-04-24T17:58:36.635Z,42.15
2024-04-24T18:01:03.805Z,42.61
2024-04-24T18:03:33.462Z,42.88
2024-04-24T18:06:00.372Z,43.56
2024-04-24T18:08:27.414Z,44.12
2024-04-24T18:10:54.378Z,42.81
2024-04-24T18:13:21.234Z,43.03
2024-04-24T18:15:48.138Z,42.94
2024-04-24T18:18:15.064Z,42.09
2024-04-24T18:20:44.852Z,41.02
2024-04-24T18:23:12.129Z,41.33
2024-04-24T18:25:38.986Z,41.04
2024-04-24T18:28:06.147Z,40.89
2024-04-24T18:30:33.019Z,40.76
2024-04-24T18:33:00.060Z,40.97
2024-04-24T18:35:27.129Z,40.56
2024-04-24T18:37:56.698Z,40.87
2024-04-24T18:40:23.718Z,41.10
2024-04-24T18:42:50.664Z,41.11
2024-04-24T18:45:17.633Z,41.09
2024-04-24T18:47:44.776Z,41.14
2024-04-24T18:50:11.905Z,41.05
2024-04-24T18:52:38.863Z,41.05
2024-04-24T18:55:08.561Z,41.19
2024-04-24T18:57:35.435Z,41.29
2024-04-24T19:00:02.529Z,41.61
2024-04-24T19:02:29.610Z,41.27
2024-04-24T19:04:56.563Z,41.18
2024-04-24T19:07:23.500Z,41.22
2024-04-24T19:09:50.329Z,41.26
2024-04-24T19:12:19.945Z,41.30
2024-04-24T19:14:46.908Z,41.33
2024-04-24T19:17:13.887Z,41.39
2024-04-24T19:19:40.830Z,41.16
2024-04-24T19:22:07.729Z,41.23
2024-04-24T19:24:34.572Z,41.02
2024-04-24T19:27:01.386Z,41.15
2024-04-24T19:29:31.062Z,40.82
2024-04-24T19:31:58.058Z,41.18
2024-04-24T19:34:24.970Z,41.14
2024-04-24T19:36:52.352Z,41.27
2024-04-24T19:39:19.829Z,40.34
2024-04-24T19:41:46.858Z,40.09
2024-04-24T19:44:14.143Z,40.31
2024-04-24T19:46:43.815Z,40.67
2024-04-24T19:49:10.682Z,40.94
2024-04-24T19:51:37.615Z,40.94
2024-04-24T19:54:04.612Z,40.71
2024-04-24T19:56:31.615Z,40.78
2024-04-24T19:58:58.468Z,40.51
2024-04-24T20:01:25.335Z,40.68
2024-04-24T20:03:55.168Z,40.30
2024-04-24T20:06:22.798Z,40.72
2024-04-24T20:08:49.987Z,40.87
2024-04-24T20:11:17.336Z,40.95
2024-04-24T20:13:47.664Z,41.17
2024-04-24T20:16:14.628Z,41.38
2024-04-24T20:18:41.534Z,41.17
2024-04-24T20:21:15.931Z,41.16
2024-04-24T20:23:43.039Z,41.75
2024-04-24T20:26:11.675Z,41.84
2024-04-24T20:28:38.588Z,41.21
2024-04-24T20:31:05.492Z,41.64
2024-04-24T20:33:33.604Z,43.38
2024-04-24T20:36:00.546Z,43.62
2024-04-24T20:38:30.876Z,44.33
2024-04-24T20:40:57.699Z,44.35
2024-04-24T20:43:24.579Z,44.10
2024-04-24T20:45:51.837Z,44.38
2024-04-24T20:48:19.133Z,44.48
2024-04-24T20:50:46.395Z,44.37
2024-04-24T20:53:13.480Z,44.48
2024-04-24T20:55:43.451Z,44.88
2024-04-24T20:58:10.302Z,45.12
2024-04-24T21:00:37.424Z,45.09
2024-04-24T21:03:04.722Z,45.51
2024-04-24T21:05:31.763Z,46.04
2024-04-24T21:07:58.580Z,47.33
2024-04-24T21:10:25.397Z,47.15
2024-04-24T21:12:54.815Z,48.66
2024-04-24T21:15:21.667Z,48.64
2024-04-24T21:17:48.563Z,47.42
2024-04-24T21:20:15.613Z,47.80
2024-04-24T21:22:42.476Z,46.79
2024-04-24T21:25:09.305Z,46.58
2024-04-24T21:27:36.131Z,48.91
2024-04-24T21:30:06.234Z,51.00
2024-04-24T21:32:33.430Z,51.51
2024-04-24T21:35:00.423Z,52.55
2024-04-24T21:37:31.413Z,52.23
2024-04-24T21:39:59.357Z,52.33
2024-04-24T21:42:26.607Z,52.91
2024-04-24T21:44:53.552Z,52.98
2024-04-24T21:47:23.094Z,53.01
2024-04-24T21:49:50.193Z,53.97
2024-04-24T21:52:17.451Z,53.37
2024-04-24T21:54:44.436Z,53.21
2024-04-24T21:57:11.389Z,53.15
2024-04-24T21:59:38.525Z,52.64
2024-04-24T22:02:05.777Z,53.46
2024-04-24T22:04:35.253Z,52.84
2024-04-24T22:07:02.219Z,52.41
2024-04-24T22:09:29.028Z,52.71
2024-04-24T22:11:55.962Z,52.47
2024-04-24T22:14:22.893Z,51.78
2024-04-24T22:16:49.723Z,51.85
2024-04-24T22:19:16.941Z,52.70
2024-04-24T22:21:46.516Z,52.87
2024-04-24T22:24:13.750Z,53.18
2024-04-24T22:26:40.664Z,52.98
2024-04-24T22:29:07.554Z,52.89
2024-04-24T22:31:34.403Z,52.83
2024-04-24T22:34:01.257Z,52.86
2024-04-24T22:36:28.176Z,53.51
2024-04-24T22:38:57.738Z,53.86
2024-04-24T22:41:24.610Z,54.68
2024-04-24T22:43:51.468Z,54.72
2024-04-24T22:46:18.330Z,54.64
2024-04-24T22:48:45.338Z,54.85
2024-04-24T22:51:12.412Z,55.39
2024-04-24T22:53:39.310Z,55.17
2024-04-24T22:56:08.901Z,55.47
2024-04-24T22:58:35.799Z,55.47
2024-04-24T23:01:02.659Z,54.82
2024-04-24T23:03:29.525Z,54.99
2024-04-24T23:05:56.347Z,54.80
2024-04-24T23:08:23.196Z,54.75
2024-04-24T23:10:50.404Z,55.19
2024-04-24T23:13:19.990Z,55.10
2024-04-24T23:15:46.903Z,55.32
2024-04-24T23:18:13.781Z,54.78
2024-04-24T23:20:41.415Z,54.90
2024-04-24T23:23:08.584Z,55.97
2024-04-24T23:25:35.469Z,55.44
2024-04-24T23:28:02.271Z,55.44
2024-04-24T23:30:31.848Z,55.36
2024-04-24T23:32:58.844Z,55.76
2024-04-24T23:35:25.774Z,55.49
2024-04-24T23:37:52.629Z,55.12
2024-04-24T23:40:19.478Z,54.86
2024-04-24T23:42:46.298Z,54.97
2024-04-24T23:45:13.309Z,55.17
2024-04-24T23:47:42.945Z,55.54
2024-04-24T23:50:09.902Z,55.56
2024-04-24T23:52:37.010Z,55.69
2024-04-24T23:55:04.534Z,55.79
2024-04-24T23:57:31.420Z,56.00
2024-04-24T23:59:58.298Z,56.13
